Current Conditions
Clear
Conditions



Pressure
29.95 (inHG) - 1014.22 (mb)
Visibility

10.0 (miles) - 16.1 (km)
Temperature
63  °F
Temperature
54  °F
Dewpoint
73  %
 Humidity
Wind Speed
17  mph
15  kts
27  km/h
7.6  m/s
Wind Direction
N
45°
E
90°
135°
S
180°
225°
W
270°
315°
 170°

Due South
Airport Data
MMLP
Manuel Márquez de León International Airport
Metar :MMLP 230443Z 17015KT 10SM SKC 17/12 A2995
Sun 22nd May 21:43 pm
Raw Metar Info
Raw METAR is the most common format in the world for the transmission of observational weather data. It is highly standardized through the International Civil Aviation Organization (ICAO), which allows it to be understood throughout most of the world.
API Info
Data Provided by
https://www.checkwx.com/weather/MMLP

Aviation Weather providing METAR, TAF, AIRMET, SIGMET and OUTLOOK Weather Reports
© Info
CSS/SVG/PHP scripts were developed by weather34.com for use in the weather34 template © 2015-2022

Guide Info provided by Metar-Wikipedia